sensor_id;sensor_type;location;lat;lon;timestamp;P1;durP1;ratioP1;P2;durP2;ratioP2
9218;SDS011;4644;48.858;9.184;2022-10-31T00:00:22;14.30;;;6.47;;
9218;SDS011;4644;48.858;9.184;2022-10-31T00:02:49;10.70;;;6.77;;
9218;SDS011;4644;48.858;9.184;2022-10-31T00:05:16;17.67;;;8.03;;
9218;SDS011;4644;48.858;9.184;2022-10-31T00:07:43;12.27;;;6.67;;
9218;SDS011;4644;48.858;9.184;2022-10-31T00:10:10;17.13;;;7.17;;
9218;SDS011;4644;48.858;9.184;2022-10-31T00:12:39;13.27;;;6.77;;
9218;SDS011;4644;48.858;9.184;2022-10-31T00:15:06;7.90;;;5.57;;
9218;SDS011;4644;48.858;9.184;2022-10-31T00:17:34;8.90;;;6.40;;
9218;SDS011;4644;48.858;9.184;2022-10-31T00:20:02;12.47;;;6.73;;
9218;SDS011;4644;48.858;9.184;2022-10-31T00:22:29;11.40;;;6.00;;
9218;SDS011;4644;48.858;9.184;2022-10-31T00:24:56;9.00;;;5.93;;
9218;SDS011;4644;48.858;9.184;2022-10-31T00:27:23;10.93;;;6.70;;
9218;SDS011;4644;48.858;9.184;2022-10-31T00:29:51;13.00;;;6.60;;
9218;SDS011;4644;48.858;9.184;2022-10-31T00:32:18;15.77;;;6.80;;
9218;SDS011;4644;48.858;9.184;2022-10-31T00:34:45;11.50;;;6.57;;
9218;SDS011;4644;48.858;9.184;2022-10-31T00:37:12;8.93;;;6.30;;
9218;SDS011;4644;48.858;9.184;2022-10-31T00:39:38;16.03;;;6.63;;
9218;SDS011;4644;48.858;9.184;2022-10-31T00:42:05;11.50;;;6.77;;
9218;SDS011;4644;48.858;9.184;2022-10-31T00:44:32;10.67;;;6.87;;
9218;SDS011;4644;48.858;9.184;2022-10-31T00:47:01;12.93;;;6.90;;
9218;SDS011;4644;48.858;9.184;2022-10-31T00:49:28;10.77;;;7.17;;
9218;SDS011;4644;48.858;9.184;2022-10-31T00:51:55;12.77;;;7.07;;
9218;SDS011;4644;48.858;9.184;2022-10-31T00:54:22;9.87;;;7.10;;
9218;SDS011;4644;48.858;9.184;2022-10-31T00:56:49;12.07;;;7.27;;
9218;SDS011;4644;48.858;9.184;2022-10-31T00:59:16;17.83;;;7.37;;
9218;SDS011;4644;48.858;9.184;2022-10-31T01:01:43;12.53;;;7.23;;
9218;SDS011;4644;48.858;9.184;2022-10-31T01:04:11;15.20;;;7.43;;
9218;SDS011;4644;48.858;9.184;2022-10-31T01:06:38;12.23;;;7.70;;
9218;SDS011;4644;48.858;9.184;2022-10-31T01:09:05;13.90;;;7.17;;
9218;SDS011;4644;48.858;9.184;2022-10-31T01:11:32;15.47;;;7.87;;
9218;SDS011;4644;48.858;9.184;2022-10-31T01:13:59;12.00;;;7.27;;
9218;SDS011;4644;48.858;9.184;2022-10-31T01:16:26;13.43;;;7.77;;
9218;SDS011;4644;48.858;9.184;2022-10-31T01:18:55;11.27;;;7.27;;
9218;SDS011;4644;48.858;9.184;2022-10-31T01:21:24;12.30;;;7.47;;
9218;SDS011;4644;48.858;9.184;2022-10-31T01:23:53;12.73;;;6.80;;
9218;SDS011;4644;48.858;9.184;2022-10-31T01:26:23;13.00;;;7.40;;
9218;SDS011;4644;48.858;9.184;2022-10-31T01:28:51;10.80;;;7.40;;
9218;SDS011;4644;48.858;9.184;2022-10-31T01:31:20;10.70;;;6.90;;
9218;SDS011;4644;48.858;9.184;2022-10-31T01:33:49;16.50;;;7.83;;
9218;SDS011;4644;48.858;9.184;2022-10-31T01:36:18;15.50;;;7.20;;
9218;SDS011;4644;48.858;9.184;2022-10-31T01:38:48;12.80;;;7.50;;
9218;SDS011;4644;48.858;9.184;2022-10-31T01:41:17;9.33;;;7.03;;
9218;SDS011;4644;48.858;9.184;2022-10-31T01:43:47;12.67;;;6.97;;
9218;SDS011;4644;48.858;9.184;2022-10-31T01:46:17;16.77;;;7.63;;
9218;SDS011;4644;48.858;9.184;2022-10-31T01:48:48;10.77;;;7.13;;
9218;SDS011;4644;48.858;9.184;2022-10-31T01:51:15;11.60;;;7.27;;
9218;SDS011;4644;48.858;9.184;2022-10-31T01:53:45;12.50;;;7.10;;
9218;SDS011;4644;48.858;9.184;2022-10-31T01:56:14;12.97;;;7.73;;
9218;SDS011;4644;48.858;9.184;2022-10-31T01:58:44;11.90;;;7.03;;
9218;SDS011;4644;48.858;9.184;2022-10-31T02:01:12;10.63;;;6.97;;
9218;SDS011;4644;48.858;9.184;2022-10-31T02:03:42;12.13;;;7.47;;
9218;SDS011;4644;48.858;9.184;2022-10-31T02:06:10;13.07;;;7.00;;
9218;SDS011;4644;48.858;9.184;2022-10-31T02:08:45;10.97;;;6.77;;
9218;SDS011;4644;48.858;9.184;2022-10-31T02:11:14;9.57;;;6.93;;
9218;SDS011;4644;48.858;9.184;2022-10-31T02:13:41;12.40;;;6.97;;
9218;SDS011;4644;48.858;9.184;2022-10-31T02:16:08;10.97;;;6.70;;
9218;SDS011;4644;48.858;9.184;2022-10-31T02:18:35;9.27;;;6.67;;
9218;SDS011;4644;48.858;9.184;2022-10-31T02:21:04;12.83;;;7.13;;
9218;SDS011;4644;48.858;9.184;2022-10-31T02:23:47;10.77;;;7.20;;
9218;SDS011;4644;48.858;9.184;2022-10-31T02:26:52;11.57;;;7.13;;
9218;SDS011;4644;48.858;9.184;2022-10-31T02:32:40;12.83;;;6.17;;
9218;SDS011;4644;48.858;9.184;2022-10-31T02:35:16;10.80;;;6.30;;
9218;SDS011;4644;48.858;9.184;2022-10-31T02:37:55;10.23;;;6.70;;
9218;SDS011;4644;48.858;9.184;2022-10-31T02:40:30;14.20;;;6.80;;
9218;SDS011;4644;48.858;9.184;2022-10-31T02:43:05;14.67;;;6.73;;
9218;SDS011;4644;48.858;9.184;2022-10-31T02:45:38;11.40;;;6.80;;
9218;SDS011;4644;48.858;9.184;2022-10-31T02:48:12;9.83;;;6.37;;
9218;SDS011;4644;48.858;9.184;2022-10-31T02:50:45;11.07;;;6.90;;
9218;SDS011;4644;48.858;9.184;2022-10-31T02:53:16;9.27;;;6.53;;
9218;SDS011;4644;48.858;9.184;2022-10-31T02:55:50;12.40;;;6.67;;
9218;SDS011;4644;48.858;9.184;2022-10-31T02:58:23;13.13;;;6.33;;
9218;SDS011;4644;48.858;9.184;2022-10-31T03:03:59;12.33;;;6.30;;
9218;SDS011;4644;48.858;9.184;2022-10-31T03:06:41;11.20;;;5.90;;
9218;SDS011;4644;48.858;9.184;2022-10-31T03:09:17;10.43;;;6.97;;
9218;SDS011;4644;48.858;9.184;2022-10-31T03:11:50;12.13;;;6.70;;
9218;SDS011;4644;48.858;9.184;2022-10-31T03:14:24;8.30;;;6.43;;
9218;SDS011;4644;48.858;9.184;2022-10-31T03:16:58;9.43;;;6.73;;
9218;SDS011;4644;48.858;9.184;2022-10-31T03:19:30;10.23;;;6.00;;
9218;SDS011;4644;48.858;9.184;2022-10-31T03:22:01;11.33;;;6.17;;
9218;SDS011;4644;48.858;9.184;2022-10-31T03:24:34;13.47;;;6.30;;
9218;SDS011;4644;48.858;9.184;2022-10-31T03:27:05;11.17;;;6.10;;
9218;SDS011;4644;48.858;9.184;2022-10-31T03:29:36;9.93;;;6.20;;
9218;SDS011;4644;48.858;9.184;2022-10-31T03:32:05;12.63;;;6.43;;
9218;SDS011;4644;48.858;9.184;2022-10-31T03:34:36;11.50;;;6.57;;
9218;SDS011;4644;48.858;9.184;2022-10-31T03:37:06;11.67;;;6.43;;
9218;SDS011;4644;48.858;9.184;2022-10-31T03:39:37;13.37;;;6.13;;
9218;SDS011;4644;48.858;9.184;2022-10-31T03:42:07;10.43;;;5.93;;
9218;SDS011;4644;48.858;9.184;2022-10-31T03:44:39;9.00;;;5.83;;
9218;SDS011;4644;48.858;9.184;2022-10-31T03:47:09;9.17;;;6.47;;
9218;SDS011;4644;48.858;9.184;2022-10-31T03:49:37;12.80;;;6.00;;
9218;SDS011;4644;48.858;9.184;2022-10-31T03:52:07;12.30;;;5.27;;
9218;SDS011;4644;48.858;9.184;2022-10-31T03:54:41;8.77;;;5.23;;
9218;SDS011;4644;48.858;9.184;2022-10-31T03:57:11;8.77;;;6.07;;
9218;SDS011;4644;48.858;9.184;2022-10-31T03:59:43;7.83;;;5.37;;
9218;SDS011;4644;48.858;9.184;2022-10-31T04:02:13;11.37;;;5.60;;
9218;SDS011;4644;48.858;9.184;2022-10-31T04:04:44;8.83;;;5.37;;
9218;SDS011;4644;48.858;9.184;2022-10-31T04:07:12;9.53;;;5.30;;
9218;SDS011;4644;48.858;9.184;2022-10-31T04:09:41;9.20;;;5.53;;
9218;SDS011;4644;48.858;9.184;2022-10-31T04:12:12;9.20;;;4.87;;
9218;SDS011;4644;48.858;9.184;2022-10-31T04:14:41;10.47;;;5.17;;
9218;SDS011;4644;48.858;9.184;2022-10-31T04:17:11;9.90;;;5.53;;
9218;SDS011;4644;48.858;9.184;2022-10-31T04:19:41;7.17;;;5.63;;
9218;SDS011;4644;48.858;9.184;2022-10-31T04:22:09;8.57;;;5.57;;
9218;SDS011;4644;48.858;9.184;2022-10-31T04:24:37;9.57;;;5.60;;
9218;SDS011;4644;48.858;9.184;2022-10-31T04:27:06;9.87;;;5.73;;
9218;SDS011;4644;48.858;9.184;2022-10-31T04:29:33;15.80;;;5.97;;
9218;SDS011;4644;48.858;9.184;2022-10-31T04:32:00;10.17;;;5.60;;
9218;SDS011;4644;48.858;9.184;2022-10-31T04:34:27;8.77;;;5.67;;
9218;SDS011;4644;48.858;9.184;2022-10-31T04:36:54;10.73;;;5.60;;
9218;SDS011;4644;48.858;9.184;2022-10-31T04:39:23;12.20;;;6.20;;
9218;SDS011;4644;48.858;9.184;2022-10-31T04:41:50;10.60;;;5.80;;
9218;SDS011;4644;48.858;9.184;2022-10-31T04:44:17;11.17;;;6.60;;
9218;SDS011;4644;48.858;9.184;2022-10-31T04:46:44;9.10;;;6.00;;
9218;SDS011;4644;48.858;9.184;2022-10-31T04:49:11;8.43;;;5.60;;
9218;SDS011;4644;48.858;9.184;2022-10-31T04:51:38;9.27;;;6.20;;
9218;SDS011;4644;48.858;9.184;2022-10-31T04:54:05;8.87;;;6.60;;
9218;SDS011;4644;48.858;9.184;2022-10-31T04:56:33;9.87;;;5.87;;
9218;SDS011;4644;48.858;9.184;2022-10-31T04:59:00;11.30;;;6.27;;
9218;SDS011;4644;48.858;9.184;2022-10-31T05:01:27;11.43;;;6.23;;
9218;SDS011;4644;48.858;9.184;2022-10-31T05:03:54;10.73;;;6.00;;
9218;SDS011;4644;48.858;9.184;2022-10-31T05:06:21;12.23;;;6.47;;
9218;SDS011;4644;48.858;9.184;2022-10-31T05:08:48;8.90;;;6.37;;
9218;SDS011;4644;48.858;9.184;2022-10-31T05:11:15;15.40;;;6.53;;
9218;SDS011;4644;48.858;9.184;2022-10-31T05:13:43;14.00;;;6.83;;
9218;SDS011;4644;48.858;9.184;2022-10-31T05:16:10;12.50;;;6.23;;
9218;SDS011;4644;48.858;9.184;2022-10-31T05:18:37;14.07;;;6.30;;
9218;SDS011;4644;48.858;9.184;2022-10-31T05:21:04;13.53;;;6.03;;
9218;SDS011;4644;48.858;9.184;2022-10-31T05:23:31;9.30;;;5.93;;
9218;SDS011;4644;48.858;9.184;2022-10-31T05:25:58;12.73;;;6.37;;
9218;SDS011;4644;48.858;9.184;2022-10-31T05:28:25;9.67;;;6.20;;
9218;SDS011;4644;48.858;9.184;2022-10-31T05:30:53;13.83;;;6.13;;
9218;SDS011;4644;48.858;9.184;2022-10-31T05:33:20;8.43;;;5.90;;
9218;SDS011;4644;48.858;9.184;2022-10-31T05:35:47;11.23;;;6.03;;
9218;SDS011;4644;48.858;9.184;2022-10-31T05:38:14;10.83;;;5.97;;
9218;SDS011;4644;48.858;9.184;2022-10-31T05:40:41;13.97;;;5.87;;
9218;SDS011;4644;48.858;9.184;2022-10-31T05:43:08;9.17;;;6.07;;
9218;SDS011;4644;48.858;9.184;2022-10-31T05:45:35;10.27;;;5.90;;
9218;SDS011;4644;48.858;9.184;2022-10-31T05:48:04;10.37;;;5.20;;
9218;SDS011;4644;48.858;9.184;2022-10-31T05:50:31;11.73;;;5.57;;
9218;SDS011;4644;48.858;9.184;2022-10-31T05:52:59;11.90;;;6.00;;
9218;SDS011;4644;48.858;9.184;2022-10-31T05:55:27;8.53;;;5.60;;
9218;SDS011;4644;48.858;9.184;2022-10-31T05:57:55;9.57;;;6.23;;
9218;SDS011;4644;48.858;9.184;2022-10-31T06:00:22;11.83;;;5.43;;
9218;SDS011;4644;48.858;9.184;2022-10-31T06:02:57;10.40;;;6.07;;
9218;SDS011;4644;48.858;9.184;2022-10-31T06:05:26;7.13;;;5.30;;
9218;SDS011;4644;48.858;9.184;2022-10-31T06:07:53;10.07;;;6.03;;
9218;SDS011;4644;48.858;9.184;2022-10-31T06:10:20;9.17;;;6.00;;
9218;SDS011;4644;48.858;9.184;2022-10-31T06:12:47;11.10;;;5.63;;
9218;SDS011;4644;48.858;9.184;2022-10-31T06:15:15;9.93;;;5.90;;
9218;SDS011;4644;48.858;9.184;2022-10-31T06:17:44;9.53;;;6.00;;
9218;SDS011;4644;48.858;9.184;2022-10-31T06:20:11;13.47;;;5.70;;
9218;SDS011;4644;48.858;9.184;2022-10-31T06:22:40;10.57;;;6.17;;
9218;SDS011;4644;48.858;9.184;2022-10-31T06:25:07;6.03;;;5.43;;
9218;SDS011;4644;48.858;9.184;2022-10-31T06:27:34;13.50;;;6.07;;
9218;SDS011;4644;48.858;9.184;2022-10-31T06:30:01;7.13;;;5.70;;
9218;SDS011;4644;48.858;9.184;2022-10-31T06:32:28;9.47;;;5.67;;
9218;SDS011;4644;48.858;9.184;2022-10-31T06:34:55;7.37;;;5.53;;
9218;SDS011;4644;48.858;9.184;2022-10-31T06:37:22;10.17;;;5.77;;
9218;SDS011;4644;48.858;9.184;2022-10-31T06:39:51;9.73;;;5.60;;
9218;SDS011;4644;48.858;9.184;2022-10-31T06:42:18;11.07;;;5.50;;
9218;SDS011;4644;48.858;9.184;2022-10-31T06:44:45;12.73;;;6.00;;
9218;SDS011;4644;48.858;9.184;2022-10-31T06:47:12;8.77;;;5.83;;
9218;SDS011;4644;48.858;9.184;2022-10-31T06:49:39;10.20;;;5.50;;
9218;SDS011;4644;48.858;9.184;2022-10-31T06:52:06;10.83;;;5.40;;
9218;SDS011;4644;48.858;9.184;2022-10-31T06:54:33;9.37;;;5.40;;
9218;SDS011;4644;48.858;9.184;2022-10-31T06:57:01;10.13;;;5.47;;
9218;SDS011;4644;48.858;9.184;2022-10-31T06:59:28;10.13;;;5.40;;
9218;SDS011;4644;48.858;9.184;2022-10-31T07:01:57;10.20;;;5.43;;
9218;SDS011;4644;48.858;9.184;2022-10-31T07:04:24;12.40;;;5.30;;
9218;SDS011;4644;48.858;9.184;2022-10-31T07:06:51;8.77;;;5.40;;
9218;SDS011;4644;48.858;9.184;2022-10-31T07:09:18;11.17;;;5.30;;
9218;SDS011;4644;48.858;9.184;2022-10-31T07:11:45;8.40;;;5.60;;
9218;SDS011;4644;48.858;9.184;2022-10-31T07:14:13;9.53;;;5.10;;
9218;SDS011;4644;48.858;9.184;2022-10-31T07:16:40;9.17;;;5.17;;
9218;SDS011;4644;48.858;9.184;2022-10-31T07:19:07;12.30;;;6.10;;
9218;SDS011;4644;48.858;9.184;2022-10-31T07:21:34;7.47;;;4.93;;
9218;SDS011;4644;48.858;9.184;2022-10-31T07:24:01;7.20;;;5.10;;
9218;SDS011;4644;48.858;9.184;2022-10-31T07:26:29;9.23;;;5.37;;
9218;SDS011;4644;48.858;9.184;2022-10-31T07:28:56;9.87;;;5.47;;
9218;SDS011;4644;48.858;9.184;2022-10-31T07:31:25;11.23;;;5.60;;
9218;SDS011;4644;48.858;9.184;2022-10-31T07:33:52;9.47;;;5.47;;
9218;SDS011;4644;48.858;9.184;2022-10-31T07:36:19;5.87;;;4.70;;
9218;SDS011;4644;48.858;9.184;2022-10-31T07:38:47;9.20;;;5.33;;
9218;SDS011;4644;48.858;9.184;2022-10-31T07:41:14;13.87;;;5.43;;
9218;SDS011;4644;48.858;9.184;2022-10-31T07:43:41;9.43;;;5.23;;
9218;SDS011;4644;48.858;9.184;2022-10-31T07:46:08;8.87;;;5.13;;
9218;SDS011;4644;48.858;9.184;2022-10-31T07:48:37;9.60;;;5.63;;
9218;SDS011;4644;48.858;9.184;2022-10-31T07:51:08;7.37;;;5.17;;
9218;SDS011;4644;48.858;9.184;2022-10-31T07:53:35;7.90;;;5.30;;
9218;SDS011;4644;48.858;9.184;2022-10-31T07:56:02;8.30;;;5.03;;
9218;SDS011;4644;48.858;9.184;2022-10-31T07:58:29;7.30;;;4.67;;
9218;SDS011;4644;48.858;9.184;2022-10-31T08:00:57;10.73;;;5.13;;
9218;SDS011;4644;48.858;9.184;2022-10-31T08:03:25;10.57;;;4.73;;
9218;SDS011;4644;48.858;9.184;2022-10-31T08:05:53;11.20;;;5.00;;
9218;SDS011;4644;48.858;9.184;2022-10-31T08:08:22;8.07;;;5.60;;
9218;SDS011;4644;48.858;9.184;2022-10-31T08:10:53;8.07;;;5.23;;
9218;SDS011;4644;48.858;9.184;2022-10-31T08:13:20;9.60;;;4.80;;
9218;SDS011;4644;48.858;9.184;2022-10-31T08:15:47;8.40;;;4.80;;
9218;SDS011;4644;48.858;9.184;2022-10-31T08:18:17;9.97;;;4.93;;
9218;SDS011;4644;48.858;9.184;2022-10-31T08:20:44;9.33;;;5.20;;
9218;SDS011;4644;48.858;9.184;2022-10-31T08:23:12;6.80;;;4.93;;
9218;SDS011;4644;48.858;9.184;2022-10-31T08:25:41;9.03;;;5.50;;
9218;SDS011;4644;48.858;9.184;2022-10-31T08:28:08;9.93;;;5.00;;
9218;SDS011;4644;48.858;9.184;2022-10-31T08:30:37;8.73;;;5.17;;
9218;SDS011;4644;48.858;9.184;2022-10-31T08:33:04;6.70;;;4.97;;
9218;SDS011;4644;48.858;9.184;2022-10-31T08:35:32;8.43;;;5.63;;
9218;SDS011;4644;48.858;9.184;2022-10-31T08:37:59;8.63;;;5.37;;
9218;SDS011;4644;48.858;9.184;2022-10-31T08:40:28;10.50;;;5.13;;
9218;SDS011;4644;48.858;9.184;2022-10-31T08:42:57;8.40;;;5.37;;
9218;SDS011;4644;48.858;9.184;2022-10-31T08:45:25;10.87;;;5.37;;
9218;SDS011;4644;48.858;9.184;2022-10-31T08:47:54;7.03;;;4.57;;
9218;SDS011;4644;48.858;9.184;2022-10-31T08:50:23;6.83;;;4.77;;
9218;SDS011;4644;48.858;9.184;2022-10-31T08:52:50;7.70;;;4.53;;
9218;SDS011;4644;48.858;9.184;2022-10-31T08:55:17;9.80;;;4.77;;
9218;SDS011;4644;48.858;9.184;2022-10-31T08:57:46;11.97;;;5.40;;
9218;SDS011;4644;48.858;9.184;2022-10-31T09:00:16;13.03;;;4.90;;
9218;SDS011;4644;48.858;9.184;2022-10-31T09:02:43;6.53;;;4.33;;
9218;SDS011;4644;48.858;9.184;2022-10-31T09:05:10;11.83;;;4.80;;
9218;SDS011;4644;48.858;9.184;2022-10-31T09:07:37;11.73;;;5.20;;
9218;SDS011;4644;48.858;9.184;2022-10-31T09:10:04;6.83;;;5.07;;
9218;SDS011;4644;48.858;9.184;2022-10-31T09:12:32;16.77;;;9.03;;
9218;SDS011;4644;48.858;9.184;2022-10-31T09:15:00;7.90;;;5.27;;
9218;SDS011;4644;48.858;9.184;2022-10-31T09:17:27;10.73;;;4.43;;
9218;SDS011;4644;48.858;9.184;2022-10-31T09:19:54;10.80;;;4.80;;
9218;SDS011;4644;48.858;9.184;2022-10-31T09:22:22;8.93;;;4.77;;
9218;SDS011;4644;48.858;9.184;2022-10-31T09:24:49;9.40;;;4.70;;
9218;SDS011;4644;48.858;9.184;2022-10-31T09:27:16;11.37;;;4.70;;
9218;SDS011;4644;48.858;9.184;2022-10-31T09:29:43;7.13;;;4.33;;
9218;SDS011;4644;48.858;9.184;2022-10-31T09:32:13;9.03;;;5.00;;
9218;SDS011;4644;48.858;9.184;2022-10-31T09:34:43;13.10;;;5.77;;
9218;SDS011;4644;48.858;9.184;2022-10-31T09:37:11;7.33;;;5.60;;
9218;SDS011;4644;48.858;9.184;2022-10-31T09:39:38;10.73;;;5.00;;
9218;SDS011;4644;48.858;9.184;2022-10-31T09:42:16;11.63;;;5.60;;
9218;SDS011;4644;48.858;9.184;2022-10-31T09:44:57;10.03;;;4.70;;
9218;SDS011;4644;48.858;9.184;2022-10-31T09:47:34;9.03;;;4.70;;
9218;SDS011;4644;48.858;9.184;2022-10-31T09:50:14;12.63;;;5.17;;
9218;SDS011;4644;48.858;9.184;2022-10-31T09:52:47;6.97;;;5.10;;
9218;SDS011;4644;48.858;9.184;2022-10-31T09:55:21;10.70;;;5.27;;
9218;SDS011;4644;48.858;9.184;2022-10-31T09:57:56;7.00;;;4.77;;
9218;SDS011;4644;48.858;9.184;2022-10-31T10:00:25;13.47;;;5.93;;
9218;SDS011;4644;48.858;9.184;2022-10-31T10:02:56;10.00;;;5.30;;
9218;SDS011;4644;48.858;9.184;2022-10-31T10:05:29;10.43;;;4.93;;
9218;SDS011;4644;48.858;9.184;2022-10-31T10:08:03;14.80;;;5.53;;
9218;SDS011;4644;48.858;9.184;2022-10-31T10:10:39;14.10;;;6.33;;
9218;SDS011;4644;48.858;9.184;2022-10-31T10:13:23;15.10;;;5.73;;
9218;SDS011;4644;48.858;9.184;2022-10-31T10:18:56;9.13;;;5.60;;
9218;SDS011;4644;48.858;9.184;2022-10-31T10:21:35;11.60;;;5.50;;
9218;SDS011;4644;48.858;9.184;2022-10-31T10:24:12;8.97;;;5.30;;
9218;SDS011;4644;48.858;9.184;2022-10-31T10:26:56;14.07;;;4.73;;
9218;SDS011;4644;48.858;9.184;2022-10-31T10:29:37;11.77;;;6.87;;
9218;SDS011;4644;48.858;9.184;2022-10-31T10:32:12;8.93;;;5.27;;
9218;SDS011;4644;48.858;9.184;2022-10-31T10:34:48;8.23;;;5.10;;
9218;SDS011;4644;48.858;9.184;2022-10-31T10:37:21;11.23;;;5.47;;
9218;SDS011;4644;48.858;9.184;2022-10-31T10:39:53;12.87;;;5.20;;
9218;SDS011;4644;48.858;9.184;2022-10-31T10:42:24;6.63;;;4.90;;
9218;SDS011;4644;48.858;9.184;2022-10-31T10:45:14;5.63;;;4.43;;
9218;SDS011;4644;48.858;9.184;2022-10-31T10:48:03;13.57;;;4.93;;
9218;SDS011;4644;48.858;9.184;2022-10-31T10:50:36;10.77;;;4.17;;
9218;SDS011;4644;48.858;9.184;2022-10-31T10:53:11;12.67;;;4.83;;
9218;SDS011;4644;48.858;9.184;2022-10-31T10:55:57;8.77;;;4.63;;
9218;SDS011;4644;48.858;9.184;2022-10-31T10:58:28;6.87;;;4.97;;
9218;SDS011;4644;48.858;9.184;2022-10-31T11:00:55;11.03;;;5.87;;
9218;SDS011;4644;48.858;9.184;2022-10-31T11:03:22;11.10;;;6.10;;
9218;SDS011;4644;48.858;9.184;2022-10-31T11:05:51;8.20;;;4.60;;
9218;SDS011;4644;48.858;9.184;2022-10-31T11:08:23;9.23;;;5.20;;
9218;SDS011;4644;48.858;9.184;2022-10-31T11:10:58;8.07;;;5.47;;
9218;SDS011;4644;48.858;9.184;2022-10-31T11:13:27;13.80;;;5.47;;
9218;SDS011;4644;48.858;9.184;2022-10-31T11:15:59;6.83;;;4.80;;
9218;SDS011;4644;48.858;9.184;2022-10-31T11:18:29;12.43;;;5.33;;
9218;SDS011;4644;48.858;9.184;2022-10-31T11:20:59;12.83;;;5.77;;
9218;SDS011;4644;48.858;9.184;2022-10-31T11:23:30;10.70;;;5.27;;
9218;SDS011;4644;48.858;9.184;2022-10-31T11:25:59;7.80;;;4.90;;
9218;SDS011;4644;48.858;9.184;2022-10-31T11:28:29;9.83;;;5.30;;
9218;SDS011;4644;48.858;9.184;2022-10-31T11:30:57;8.33;;;4.63;;
9218;SDS011;4644;48.858;9.184;2022-10-31T11:33:28;13.63;;;5.20;;
9218;SDS011;4644;48.858;9.184;2022-10-31T11:35:59;8.57;;;5.27;;
9218;SDS011;4644;48.858;9.184;2022-10-31T11:38:30;8.70;;;5.37;;
9218;SDS011;4644;48.858;9.184;2022-10-31T11:41:07;8.27;;;5.17;;
9218;SDS011;4644;48.858;9.184;2022-10-31T11:43:39;9.90;;;4.90;;
9218;SDS011;4644;48.858;9.184;2022-10-31T11:46:15;10.40;;;5.43;;
9218;SDS011;4644;48.858;9.184;2022-10-31T11:48:47;16.87;;;7.00;;
9218;SDS011;4644;48.858;9.184;2022-10-31T11:51:21;16.67;;;5.47;;
9218;SDS011;4644;48.858;9.184;2022-10-31T11:53:51;10.17;;;4.80;;
9218;SDS011;4644;48.858;9.184;2022-10-31T11:56:20;11.93;;;5.13;;
9218;SDS011;4644;48.858;9.184;2022-10-31T11:58:54;7.70;;;4.90;;
9218;SDS011;4644;48.858;9.184;2022-10-31T12:01:23;7.53;;;4.93;;
9218;SDS011;4644;48.858;9.184;2022-10-31T12:03:54;8.47;;;4.90;;
9218;SDS011;4644;48.858;9.184;2022-10-31T12:06:28;9.13;;;4.47;;
9218;SDS011;4644;48.858;9.184;2022-10-31T12:08:59;8.73;;;4.70;;
9218;SDS011;4644;48.858;9.184;2022-10-31T12:11:38;9.43;;;5.17;;
9218;SDS011;4644;48.858;9.184;2022-10-31T12:14:15;9.43;;;4.87;;
9218;SDS011;4644;48.858;9.184;2022-10-31T12:16:54;9.13;;;4.80;;
9218;SDS011;4644;48.858;9.184;2022-10-31T12:19:27;10.90;;;4.63;;
9218;SDS011;4644;48.858;9.184;2022-10-31T12:22:05;9.47;;;4.57;;
9218;SDS011;4644;48.858;9.184;2022-10-31T12:24:45;8.20;;;4.50;;
9218;SDS011;4644;48.858;9.184;2022-10-31T12:27:26;12.10;;;4.50;;
9218;SDS011;4644;48.858;9.184;2022-10-31T12:30:15;11.27;;;4.63;;
9218;SDS011;4644;48.858;9.184;2022-10-31T12:32:53;6.83;;;4.40;;
9218;SDS011;4644;48.858;9.184;2022-10-31T12:35:34;14.27;;;4.73;;
9218;SDS011;4644;48.858;9.184;2022-10-31T12:44:00;9.20;;;3.83;;
9218;SDS011;4644;48.858;9.184;2022-10-31T12:46:45;8.87;;;4.10;;
9218;SDS011;4644;48.858;9.184;2022-10-31T12:49:32;9.63;;;4.30;;
9218;SDS011;4644;48.858;9.184;2022-10-31T12:52:29;7.97;;;4.17;;
9218;SDS011;4644;48.858;9.184;2022-10-31T12:55:11;10.23;;;4.87;;
9218;SDS011;4644;48.858;9.184;2022-10-31T12:58:00;12.13;;;4.50;;
9218;SDS011;4644;48.858;9.184;2022-10-31T13:00:31;8.63;;;4.33;;
9218;SDS011;4644;48.858;9.184;2022-10-31T13:03:08;9.87;;;4.47;;
9218;SDS011;4644;48.858;9.184;2022-10-31T13:05:46;10.90;;;5.10;;
9218;SDS011;4644;48.858;9.184;2022-10-31T13:08:18;13.93;;;5.23;;
9218;SDS011;4644;48.858;9.184;2022-10-31T13:11:02;7.60;;;4.70;;
9218;SDS011;4644;48.858;9.184;2022-10-31T13:13:35;7.37;;;4.13;;
9218;SDS011;4644;48.858;9.184;2022-10-31T13:16:08;8.47;;;4.50;;
9218;SDS011;4644;48.858;9.184;2022-10-31T13:18:43;8.43;;;4.30;;
9218;SDS011;4644;48.858;9.184;2022-10-31T13:21:16;9.77;;;4.30;;
9218;SDS011;4644;48.858;9.184;2022-10-31T13:23:48;10.97;;;4.47;;
9218;SDS011;4644;48.858;9.184;2022-10-31T13:26:20;9.93;;;4.10;;
9218;SDS011;4644;48.858;9.184;2022-10-31T13:28:57;10.03;;;4.00;;
9218;SDS011;4644;48.858;9.184;2022-10-31T13:31:31;13.67;;;5.20;;
9218;SDS011;4644;48.858;9.184;2022-10-31T13:34:00;10.30;;;4.13;;
9218;SDS011;4644;48.858;9.184;2022-10-31T13:36:34;9.13;;;4.23;;
9218;SDS011;4644;48.858;9.184;2022-10-31T13:41:54;15.30;;;4.63;;
9218;SDS011;4644;48.858;9.184;2022-10-31T13:44:27;9.30;;;4.30;;
9218;SDS011;4644;48.858;9.184;2022-10-31T13:46:56;6.57;;;4.37;;
9218;SDS011;4644;48.858;9.184;2022-10-31T13:49:25;8.27;;;4.30;;
9218;SDS011;4644;48.858;9.184;2022-10-31T13:54:56;12.63;;;4.47;;
9218;SDS011;4644;48.858;9.184;2022-10-31T13:57:26;8.37;;;4.10;;
9218;SDS011;4644;48.858;9.184;2022-10-31T14:00:02;10.23;;;5.10;;
9218;SDS011;4644;48.858;9.184;2022-10-31T14:05:54;10.67;;;4.93;;
9218;SDS011;4644;48.858;9.184;2022-10-31T14:08:22;6.83;;;4.73;;
9218;SDS011;4644;48.858;9.184;2022-10-31T14:10:51;10.00;;;4.53;;
9218;SDS011;4644;48.858;9.184;2022-10-31T14:13:21;11.73;;;4.93;;
9218;SDS011;4644;48.858;9.184;2022-10-31T14:15:54;10.53;;;5.57;;
9218;SDS011;4644;48.858;9.184;2022-10-31T14:18:24;16.90;;;5.93;;
9218;SDS011;4644;48.858;9.184;2022-10-31T14:20:55;8.50;;;4.70;;
9218;SDS011;4644;48.858;9.184;2022-10-31T14:23:33;16.07;;;5.87;;
9218;SDS011;4644;48.858;9.184;2022-10-31T14:28:59;9.87;;;4.63;;
9218;SDS011;4644;48.858;9.184;2022-10-31T14:31:34;48.33;;;7.50;;
9218;SDS011;4644;48.858;9.184;2022-10-31T14:34:17;31.07;;;6.60;;
9218;SDS011;4644;48.858;9.184;2022-10-31T14:36:51;34.83;;;5.73;;
9218;SDS011;4644;48.858;9.184;2022-10-31T14:39:45;11.50;;;5.20;;
9218;SDS011;4644;48.858;9.184;2022-10-31T14:42:32;18.17;;;5.47;;
9218;SDS011;4644;48.858;9.184;2022-10-31T14:45:15;19.80;;;5.33;;
9218;SDS011;4644;48.858;9.184;2022-10-31T14:47:58;66.63;;;8.00;;
9218;SDS011;4644;48.858;9.184;2022-10-31T14:50:40;11.83;;;6.37;;
9218;SDS011;4644;48.858;9.184;2022-10-31T14:53:12;13.93;;;6.20;;
9218;SDS011;4644;48.858;9.184;2022-10-31T14:55:49;15.67;;;6.47;;
9218;SDS011;4644;48.858;9.184;2022-10-31T14:58:19;16.50;;;7.50;;
9218;SDS011;4644;48.858;9.184;2022-10-31T15:00:50;54.47;;;12.13;;
9218;SDS011;4644;48.858;9.184;2022-10-31T15:03:23;34.43;;;11.13;;
9218;SDS011;4644;48.858;9.184;2022-10-31T15:05:55;26.93;;;7.90;;
9218;SDS011;4644;48.858;9.184;2022-10-31T15:08:29;24.20;;;7.23;;
9218;SDS011;4644;48.858;9.184;2022-10-31T15:11:02;55.07;;;8.50;;
9218;SDS011;4644;48.858;9.184;2022-10-31T15:13:29;13.27;;;5.57;;
9218;SDS011;4644;48.858;9.184;2022-10-31T15:15:57;13.43;;;6.23;;
9218;SDS011;4644;48.858;9.184;2022-10-31T15:18:26;60.00;;;8.33;;
9218;SDS011;4644;48.858;9.184;2022-10-31T15:20:55;15.20;;;5.90;;
9218;SDS011;4644;48.858;9.184;2022-10-31T15:23:23;12.37;;;5.00;;
9218;SDS011;4644;48.858;9.184;2022-10-31T15:25:57;36.50;;;6.83;;
9218;SDS011;4644;48.858;9.184;2022-10-31T15:28:27;23.63;;;7.53;;
9218;SDS011;4644;48.858;9.184;2022-10-31T15:30:54;44.20;;;9.87;;
9218;SDS011;4644;48.858;9.184;2022-10-31T15:33:23;59.37;;;8.87;;
9218;SDS011;4644;48.858;9.184;2022-10-31T15:35:58;15.47;;;5.57;;
9218;SDS011;4644;48.858;9.184;2022-10-31T15:38:29;40.53;;;8.80;;
9218;SDS011;4644;48.858;9.184;2022-10-31T15:40:57;67.73;;;14.20;;
9218;SDS011;4644;48.858;9.184;2022-10-31T15:43:27;23.10;;;8.77;;
9218;SDS011;4644;48.858;9.184;2022-10-31T15:46:00;59.07;;;10.50;;
9218;SDS011;4644;48.858;9.184;2022-10-31T15:48:28;28.90;;;11.07;;
9218;SDS011;4644;48.858;9.184;2022-10-31T15:50:58;19.93;;;7.40;;
9218;SDS011;4644;48.858;9.184;2022-10-31T15:53:26;44.43;;;8.93;;
9218;SDS011;4644;48.858;9.184;2022-10-31T15:55:57;83.80;;;20.50;;